createdAt,value
2017-10-03T00:00:18.504Z,13.12
2017-10-03T00:01:40.153Z,13.05
2017-10-03T00:03:01.896Z,13.04
2017-10-03T00:04:23.904Z,13.07
2017-10-03T00:05:46.228Z,13.03
2017-10-03T00:07:08.000Z,12.92
2017-10-03T00:08:29.979Z,12.9
2017-10-03T00:09:51.611Z,12.86
2017-10-03T00:11:13.262Z,12.83
2017-10-03T00:12:34.889Z,12.83
2017-10-03T00:13:56.183Z,12.7
2017-10-03T00:15:17.803Z,12.72
2017-10-03T00:16:39.242Z,12.72
2017-10-03T00:18:01.244Z,12.71
2017-10-03T00:19:22.566Z,12.59
2017-10-03T00:20:44.023Z,12.59
2017-10-03T00:22:06.006Z,12.53
2017-10-03T00:23:26.986Z,12.5
2017-10-03T00:24:48.991Z,12.54
2017-10-03T00:26:10.365Z,12.45
2017-10-03T00:27:32.661Z,12.42
2017-10-03T00:28:53.973Z,12.39
2017-10-03T00:30:15.612Z,12.39
2017-10-03T00:31:36.941Z,12.45
2017-10-03T00:32:58.605Z,12.34
2017-10-03T00:34:20.574Z,12.45
2017-10-03T00:35:42.510Z,12.34
2017-10-03T00:37:04.472Z,12.31
2017-10-03T00:38:26.456Z,12.39
2017-10-03T00:39:48.110Z,12.35
2017-10-03T00:41:09.413Z,12.37
2017-10-03T00:42:30.752Z,12.37
2017-10-03T00:43:52.811Z,12.31
2017-10-03T00:45:14.770Z,12.31
2017-10-03T00:46:36.430Z,12.31
2017-10-03T00:47:57.734Z,12.35
2017-10-03T00:49:19.684Z,12.32
2017-10-03T00:50:41.063Z,12.34
2017-10-03T00:52:02.714Z,12.32
2017-10-03T00:53:24.013Z,12.31
2017-10-03T00:54:45.677Z,12.32
2017-10-03T00:56:07.308Z,12.31
2017-10-03T00:57:28.933Z,12.31
2017-10-03T00:58:50.884Z,12.28
2017-10-03T01:00:12.867Z,12.24
2017-10-03T01:01:34.488Z,12.29
2017-10-03T01:02:56.116Z,12.27
2017-10-03T01:04:17.406Z,12.19
2017-10-03T01:05:39.952Z,12.28
2017-10-03T01:07:01.906Z,12.29
2017-10-03T01:08:23.226Z,12.17
2017-10-03T01:09:45.023Z,12.23
2017-10-03T01:11:07.076Z,12.14
2017-10-03T01:12:28.573Z,12.27
2017-10-03T01:13:50.200Z,12.24
2017-10-03T01:15:11.201Z,12.28
2017-10-03T01:16:32.202Z,12.27
2017-10-03T01:17:53.514Z,12.29
2017-10-03T01:19:15.145Z,12.27
2017-10-03T01:20:36.775Z,12.27
2017-10-03T01:21:59.120Z,12.19
2017-10-03T01:23:21.076Z,12.24
2017-10-03T01:24:42.793Z,12.23
2017-10-03T01:26:04.423Z,12.13
2017-10-03T01:27:26.052Z,12.12
2017-10-03T01:28:47.997Z,12.09
2017-10-03T01:30:09.338Z,12.1
2017-10-03T01:31:30.658Z,12.1
2017-10-03T01:32:52.638Z,12.14
2017-10-03T01:34:13.953Z,12.07
2017-10-03T01:35:35.599Z,11.98
2017-10-03T01:36:57.583Z,12.01
2017-10-03T01:38:19.339Z,12.01
2017-10-03T01:39:40.343Z,11.94
2017-10-03T01:41:02.353Z,11.88
2017-10-03T01:42:23.722Z,11.99
2017-10-03T01:43:45.698Z,11.96
2017-10-03T01:45:07.009Z,11.96
2017-10-03T01:46:28.743Z,12.04
2017-10-03T01:47:50.044Z,11.9
2017-10-03T01:49:11.774Z,11.88
2017-10-03T01:50:33.385Z,11.86
2017-10-03T01:51:54.707Z,11.8
2017-10-03T01:53:16.646Z,11.79
2017-10-03T01:54:38.624Z,11.8
2017-10-03T01:56:00.264Z,11.75
2017-10-03T01:57:22.205Z,11.78
2017-10-03T01:58:43.814Z,11.76
2017-10-03T02:00:05.760Z,11.72
2017-10-03T02:01:27.074Z,11.7
2017-10-03T02:02:49.008Z,11.7
2017-10-03T02:04:10.618Z,11.61
2017-10-03T02:05:32.920Z,11.62
2017-10-03T02:06:54.375Z,11.67
2017-10-03T02:08:15.685Z,11.58
2017-10-03T02:09:37.318Z,11.61
2017-10-03T02:10:58.283Z,11.55
2017-10-03T02:12:19.914Z,11.49
2017-10-03T02:13:41.544Z,11.54
2017-10-03T02:15:02.858Z,11.52
2017-10-03T02:16:24.500Z,11.52
2017-10-03T02:17:45.633Z,11.43
2017-10-03T02:19:07.056Z,11.51
2017-10-03T02:20:28.353Z,11.49
2017-10-03T02:21:50.643Z,11.35
2017-10-03T02:23:11.936Z,11.32
2017-10-03T02:24:33.877Z,11.37
2017-10-03T02:25:55.804Z,11.37
2017-10-03T02:27:17.505Z,11.49
2017-10-03T02:28:39.463Z,11.44
2017-10-03T02:30:01.083Z,11.47
2017-10-03T02:31:22.793Z,11.49
2017-10-03T02:32:44.433Z,11.47
2017-10-03T02:34:06.058Z,11.58
2017-10-03T02:35:27.357Z,11.52
2017-10-03T02:36:49.406Z,11.64
2017-10-03T02:38:11.092Z,11.6
2017-10-03T02:39:32.378Z,11.62
2017-10-03T02:40:53.693Z,11.58
2017-10-03T02:42:15.405Z,11.64
2017-10-03T02:43:37.653Z,11.64
2017-10-03T02:44:59.278Z,11.7
2017-10-03T02:46:20.883Z,11.6
2017-10-03T02:47:42.932Z,11.58
2017-10-03T02:49:04.933Z,11.61
2017-10-03T02:50:25.924Z,11.55
2017-10-03T02:51:47.594Z,11.57
2017-10-03T02:53:09.563Z,11.51
2017-10-03T02:54:31.497Z,11.54
2017-10-03T02:55:53.123Z,11.54
2017-10-03T02:57:14.742Z,11.47
2017-10-03T02:58:36.359Z,11.4
2017-10-03T02:59:57.971Z,11.32
2017-10-03T03:01:19.343Z,11.39
2017-10-03T03:02:40.654Z,11.4
2017-10-03T03:04:02.604Z,11.36
2017-10-03T03:05:24.566Z,11.35
2017-10-03T03:06:46.234Z,11.39
2017-10-03T03:08:07.525Z,11.37
2017-10-03T03:09:28.834Z,11.35
2017-10-03T03:10:50.473Z,11.36
2017-10-03T03:12:12.097Z,11.35
2017-10-03T03:13:34.037Z,11.4
2017-10-03T03:14:55.431Z,11.44
2017-10-03T03:16:17.574Z,11.52
2017-10-03T03:17:38.884Z,11.43
2017-10-03T03:19:00.845Z,11.49
2017-10-03T03:20:22.804Z,11.51
2017-10-03T03:21:44.433Z,11.52
2017-10-03T03:23:05.814Z,11.36
2017-10-03T03:24:27.134Z,11.36
2017-10-03T03:25:48.765Z,11.32
2017-10-03T03:27:10.116Z,11.39
2017-10-03T03:28:31.814Z,11.22
2017-10-03T03:29:52.784Z,11.32
2017-10-03T03:31:14.457Z,11.22
2017-10-03T03:32:35.143Z,11.22
2017-10-03T03:33:56.789Z,11.22
2017-10-03T03:35:18.423Z,11.22
2017-10-03T03:36:39.730Z,11.32
2017-10-03T03:38:01.716Z,11.32
2017-10-03T03:39:23.015Z,11.4
2017-10-03T03:40:44.343Z,11.37
2017-10-03T03:42:05.974Z,11.51
2017-10-03T03:43:27.893Z,11.52
2017-10-03T03:44:49.224Z,11.64
2017-10-03T03:46:10.209Z,11.69
2017-10-03T03:47:31.244Z,11.75
2017-10-03T03:48:53.401Z,11.73
2017-10-03T03:50:15.030Z,11.78
2017-10-03T03:51:36.002Z,11.82
2017-10-03T03:52:57.817Z,11.75
2017-10-03T03:54:19.776Z,11.9
2017-10-03T03:55:41.065Z,11.79
2017-10-03T03:57:02.504Z,11.78
2017-10-03T03:58:24.434Z,11.75
2017-10-03T03:59:46.438Z,11.64
2017-10-03T04:01:07.741Z,11.67
2017-10-03T04:02:29.695Z,11.57
2017-10-03T04:03:50.809Z,11.55
2017-10-03T04:05:12.195Z,11.52
2017-10-03T04:06:34.139Z,11.37
2017-10-03T04:07:55.442Z,11.36
2017-10-03T04:09:16.780Z,11.37
2017-10-03T04:10:38.433Z,11.36
2017-10-03T04:11:59.749Z,11.33
2017-10-03T04:13:21.091Z,11.27
2017-10-03T04:14:42.065Z,11.17
2017-10-03T04:16:03.433Z,11.11
2017-10-03T04:17:25.374Z,11.1
2017-10-03T04:18:46.723Z,11.07
2017-10-03T04:20:08.046Z,11
2017-10-03T04:21:30.081Z,11
2017-10-03T04:22:51.446Z,11.02
2017-10-03T04:24:13.080Z,11.02
2017-10-03T04:25:34.824Z,11.04
2017-10-03T04:26:56.781Z,11.03
2017-10-03T04:28:18.086Z,10.96
2017-10-03T04:29:39.062Z,10.97
2017-10-03T04:31:00.764Z,10.94
2017-10-03T04:32:22.384Z,10.85
2017-10-03T04:33:43.694Z,10.91
2017-10-03T04:35:05.644Z,10.89
2017-10-03T04:36:27.585Z,10.88
2017-10-03T04:37:49.878Z,10.86
2017-10-03T04:39:11.501Z,10.79
2017-10-03T04:40:32.805Z,10.78
2017-10-03T04:41:54.554Z,10.68
2017-10-03T04:43:15.883Z,10.76
2017-10-03T04:44:37.503Z,10.7
2017-10-03T04:45:59.144Z,10.71
2017-10-03T04:47:20.774Z,10.74
2017-10-03T04:48:56.664Z,10.74
2017-10-03T04:50:17.320Z,10.7
2017-10-03T04:51:38.613Z,10.71
2017-10-03T04:53:00.553Z,10.74
2017-10-03T04:54:21.888Z,10.76
2017-10-03T04:55:43.203Z,10.76
2017-10-03T04:57:04.833Z,10.71
2017-10-03T04:58:25.808Z,10.7
2017-10-03T04:59:47.474Z,10.74
2017-10-03T05:01:09.092Z,10.82
2017-10-03T05:02:31.050Z,10.85
2017-10-03T05:03:52.663Z,10.91
2017-10-03T05:05:14.304Z,10.99
2017-10-03T05:06:36.046Z,11.02
2017-10-03T05:07:57.666Z,11.15
2017-10-03T05:09:19.623Z,11.17
2017-10-03T05:10:40.925Z,11.17
2017-10-03T05:12:02.864Z,11.19
2017-10-03T05:13:23.843Z,11.24
2017-10-03T05:14:45.483Z,11.19
2017-10-03T05:16:07.145Z,11.25
2017-10-03T05:17:28.774Z,11.17
2017-10-03T05:18:50.403Z,11.24
2017-10-03T05:20:11.149Z,11.18
2017-10-03T05:21:32.465Z,11.17
2017-10-03T05:22:53.474Z,11.22
2017-10-03T05:24:15.091Z,11.15
2017-10-03T05:25:37.099Z,11.14
2017-10-03T05:26:59.095Z,11.21
2017-10-03T05:28:20.080Z,11.15
2017-10-03T05:29:42.020Z,11.15
2017-10-03T05:31:03.645Z,11.03
2017-10-03T05:32:25.732Z,10.94
2017-10-03T05:33:47.341Z,11
2017-10-03T05:35:08.640Z,10.96
2017-10-03T05:36:30.268Z,10.99
2017-10-03T05:37:52.253Z,10.88
2017-10-03T05:39:13.885Z,10.89
2017-10-03T05:40:35.614Z,10.84
2017-10-03T05:41:56.974Z,10.81
2017-10-03T05:43:18.082Z,10.89
2017-10-03T05:44:39.715Z,10.86
2017-10-03T05:46:00.726Z,10.82
2017-10-03T05:47:22.684Z,10.89
2017-10-03T05:48:44.984Z,10.88
2017-10-03T05:50:06.612Z,10.88
2017-10-03T05:51:27.913Z,10.84
2017-10-03T05:52:49.873Z,10.86
2017-10-03T05:54:11.837Z,10.86
2017-10-03T05:55:33.462Z,10.96
2017-10-03T05:56:54.908Z,11.02
2017-10-03T05:58:16.532Z,11.04
2017-10-03T05:59:38.493Z,11.11
2017-10-03T06:00:59.876Z,11.17
2017-10-03T06:02:21.514Z,11.24
2017-10-03T06:03:43.174Z,11.29
2017-10-03T06:05:04.823Z,11.24
2017-10-03T06:06:26.761Z,11.36
2017-10-03T06:07:48.383Z,11.37
2017-10-03T06:09:09.692Z,11.51
2017-10-03T06:10:31.083Z,11.65
2017-10-03T06:11:52.704Z,11.88
2017-10-03T06:13:14.016Z,12.27
2017-10-03T06:14:35.361Z,12.59
2017-10-03T06:15:57.283Z,12.96
2017-10-03T06:17:18.953Z,13.3
2017-10-03T06:18:39.956Z,13.57
2017-10-03T06:20:02.012Z,13.57
2017-10-03T06:21:23.353Z,13.36
2017-10-03T06:22:45.296Z,13.03
2017-10-03T06:24:06.922Z,12.68
2017-10-03T06:25:28.354Z,12.35
2017-10-03T06:26:49.999Z,12.35
2017-10-03T06:28:11.621Z,12.2
2017-10-03T06:29:32.925Z,12.28
2017-10-03T06:30:54.324Z,12.56
2017-10-03T06:32:16.680Z,13.2
2017-10-03T06:33:37.993Z,13.81
2017-10-03T06:35:00.133Z,14.2
2017-10-03T06:36:21.168Z,14.51
2017-10-03T06:37:42.823Z,14.83
2017-10-03T06:39:04.464Z,15.34
2017-10-03T06:40:25.785Z,15.89
2017-10-03T06:41:47.723Z,16.48
2017-10-03T06:43:09.656Z,16.75
2017-10-03T06:44:30.643Z,16.67
2017-10-03T06:45:52.275Z,16.48
2017-10-03T06:47:14.013Z,15.86
2017-10-03T06:48:36.124Z,15.38
2017-10-03T06:49:58.100Z,14.83
2017-10-03T06:51:19.756Z,14.62
2017-10-03T06:52:41.698Z,14.37
2017-10-03T06:54:03.685Z,14.32
2017-10-03T06:55:25.304Z,14.21
2017-10-03T06:56:47.335Z,13.95
2017-10-03T06:58:09.286Z,13.77
2017-10-03T06:59:31.597Z,13.57
2017-10-03T07:00:53.299Z,13.6
2017-10-03T07:02:15.243Z,13.46
2017-10-03T07:03:37.288Z,13.84
2017-10-03T07:04:59.344Z,14.72
2017-10-03T07:06:21.316Z,15.69
2017-10-03T07:07:42.614Z,16.02
2017-10-03T07:09:04.642Z,15.82
2017-10-03T07:10:26.966Z,15.47
2017-10-03T07:11:48.332Z,15.54
2017-10-03T07:13:09.961Z,15.59
2017-10-03T07:14:31.709Z,15.53
2017-10-03T07:15:53.690Z,15.76
2017-10-03T07:17:15.333Z,15.93
2017-10-03T07:18:37.315Z,15.94
2017-10-03T07:19:58.959Z,15.72
2017-10-03T07:21:20.294Z,15.54
2017-10-03T07:22:42.349Z,15.17
2017-10-03T07:24:04.304Z,14.99
2017-10-03T07:25:25.958Z,14.73
2017-10-03T07:26:47.286Z,14.55
2017-10-03T07:28:08.591Z,14.42
2017-10-03T07:29:30.546Z,14.12
2017-10-03T07:30:52.234Z,14.04
2017-10-03T07:32:14.264Z,13.99
2017-10-03T07:33:35.587Z,14.1
2017-10-03T07:34:56.889Z,14.24
2017-10-03T07:36:18.903Z,14.29
2017-10-03T07:37:40.630Z,14.36
2017-10-03T07:39:01.949Z,14.55
2017-10-03T07:40:23.256Z,14.72
2017-10-03T07:41:44.953Z,14.8
2017-10-03T07:43:06.928Z,14.75
2017-10-03T07:44:28.556Z,14.68
2017-10-03T07:45:50.255Z,14.68
2017-10-03T07:47:12.228Z,14.68
2017-10-03T07:48:34.256Z,14.75
2017-10-03T07:49:56.250Z,14.68
2017-10-03T07:51:17.884Z,14.83
2017-10-03T07:52:39.849Z,14.86
2017-10-03T07:54:01.232Z,14.84
2017-10-03T07:55:23.074Z,14.88
2017-10-03T07:56:44.854Z,14.86
2017-10-03T07:58:06.844Z,14.84
2017-10-03T07:59:28.817Z,14.84
2017-10-03T08:00:50.460Z,14.88
2017-10-03T08:02:11.758Z,14.91
2017-10-03T08:03:33.384Z,14.91
2017-10-03T08:04:55.789Z,14.94
2017-10-03T08:06:17.107Z,14.94
2017-10-03T08:07:39.080Z,15.02
2017-10-03T08:09:00.728Z,14.95
2017-10-03T08:10:22.012Z,15.01
2017-10-03T08:11:43.655Z,15.07
2017-10-03T08:13:05.301Z,15.14
2017-10-03T08:14:27.351Z,15.32
2017-10-03T08:15:49.335Z,15.31
2017-10-03T08:17:10.962Z,15.34
2017-10-03T08:18:32.367Z,15.39
2017-10-03T08:19:54.431Z,15.29
2017-10-03T08:21:16.403Z,15.32
2017-10-03T08:22:37.706Z,15.44
2017-10-03T08:23:59.016Z,15.41
2017-10-03T08:25:21.150Z,15.5
2017-10-03T08:26:43.480Z,15.57
2017-10-03T08:28:05.115Z,15.57
2017-10-03T08:29:26.783Z,15.76
2017-10-03T08:30:48.743Z,15.86
2017-10-03T08:32:10.365Z,16.01
2017-10-03T08:33:32.297Z,15.94
2017-10-03T08:34:54.270Z,15.82
2017-10-03T08:36:16.245Z,15.72
2017-10-03T08:37:38.187Z,15.83
2017-10-03T08:39:00.346Z,16.09
2017-10-03T08:40:22.845Z,16.3
2017-10-03T08:41:45.309Z,16.34
2017-10-03T08:43:07.194Z,16.33
2017-10-03T08:44:29.675Z,16.05
2017-10-03T08:45:51.846Z,16.04
2017-10-03T08:47:13.373Z,15.97
2017-10-03T08:48:35.213Z,15.93
2017-10-03T08:49:57.043Z,16.01
2017-10-03T08:51:19.361Z,15.9
2017-10-03T08:52:41.934Z,16.07
2017-10-03T08:54:04.083Z,16.14
2017-10-03T08:55:26.219Z,16.3
2017-10-03T08:56:48.370Z,16.28
2017-10-03T08:58:09.862Z,16.43
2017-10-03T08:59:32.334Z,16.41
2017-10-03T09:00:54.818Z,16.35
2017-10-03T09:02:16.970Z,16.45
2017-10-03T09:03:39.460Z,16.34
2017-10-03T09:05:02.004Z,16.49
2017-10-03T09:06:23.826Z,16.57
2017-10-03T09:07:45.984Z,16.88
2017-10-03T09:09:08.445Z,17.04
2017-10-03T09:10:30.903Z,17.15
2017-10-03T09:11:52.741Z,17.43
2017-10-03T09:13:14.974Z,17.71
2017-10-03T09:14:36.792Z,17.86
2017-10-03T09:15:59.300Z,17.84
2017-10-03T09:17:21.791Z,17.79
2017-10-03T09:18:42.993Z,17.87
2017-10-03T09:20:05.264Z,17.75
2017-10-03T09:21:27.723Z,17.51
2017-10-03T09:22:49.356Z,17.43
2017-10-03T09:24:11.565Z,17.49
2017-10-03T09:25:33.811Z,17.68
2017-10-03T09:26:56.321Z,17.92
2017-10-03T09:28:18.146Z,18.25
2017-10-03T09:29:40.606Z,18.41
2017-10-03T09:31:02.745Z,18.58
2017-10-03T09:32:25.001Z,18.54
2017-10-03T09:33:46.961Z,18.5
2017-10-03T09:35:08.844Z,18.3
2017-10-03T09:36:31.313Z,18.33
2017-10-03T09:37:53.146Z,18.39
2017-10-03T09:39:15.634Z,18.55
2017-10-03T09:40:38.133Z,18.54
2017-10-03T09:42:00.311Z,18.45
2017-10-03T09:43:22.466Z,18.14
2017-10-03T09:44:45.004Z,18.2
2017-10-03T09:46:07.143Z,18.35
2017-10-03T09:47:29.674Z,18.52
2017-10-03T09:48:51.843Z,18.67
2017-10-03T09:50:13.673Z,18.3
2017-10-03T09:51:35.849Z,18.07
2017-10-03T09:52:57.992Z,17.87
2017-10-03T09:54:20.153Z,17.58
2017-10-03T09:55:41.968Z,17.54
2017-10-03T09:57:03.884Z,17.49
2017-10-03T09:58:26.410Z,17.74
2017-10-03T09:59:48.616Z,17.89
2017-10-03T10:01:11.256Z,17.99
2017-10-03T10:02:33.765Z,18.2
2017-10-03T10:03:56.271Z,18.27
2017-10-03T10:05:18.424Z,18.33
2017-10-03T10:06:41.100Z,18.42
2017-10-03T10:08:03.377Z,18.57
2017-10-03T10:09:25.612Z,18.7
2017-10-03T10:10:47.142Z,18.78
2017-10-03T10:12:08.657Z,18.73
2017-10-03T10:13:30.865Z,18.81
2017-10-03T10:14:53.019Z,18.69
2017-10-03T10:16:15.177Z,18.67
2017-10-03T10:17:37.644Z,18.35
2017-10-03T10:18:59.574Z,18.26
2017-10-03T10:20:21.534Z,18.25
2017-10-03T10:21:43.752Z,18.21
2017-10-03T10:23:05.894Z,18.03
2017-10-03T10:24:28.495Z,17.87
2017-10-03T10:25:50.956Z,17.82
2017-10-03T10:27:13.473Z,17.75
2017-10-03T10:28:35.344Z,17.87
2017-10-03T10:29:56.957Z,17.95
2017-10-03T10:31:18.153Z,18.05
2017-10-03T10:32:40.006Z,18.07
2017-10-03T10:34:02.184Z,18.26
2017-10-03T10:35:24.344Z,18.03
2017-10-03T10:36:46.493Z,18.14
2017-10-03T10:38:08.644Z,18.36
2017-10-03T10:39:31.125Z,18.44
2017-10-03T10:40:53.072Z,18.23
2017-10-03T10:42:15.244Z,18.21
2017-10-03T10:43:37.741Z,18.08
2017-10-03T10:44:59.603Z,18.07
2017-10-03T10:46:21.787Z,18.3
2017-10-03T10:47:44.281Z,18.52
2017-10-03T10:49:05.466Z,18.82
2017-10-03T10:50:26.697Z,19.06
2017-10-03T10:51:49.252Z,19.22
2017-10-03T10:53:11.778Z,19.28
2017-10-03T10:54:33.611Z,19.37
2017-10-03T10:55:55.454Z,19.4
2017-10-03T10:57:17.616Z,19.37
2017-10-03T10:58:39.632Z,19.37
2017-10-03T11:00:02.091Z,19.37
2017-10-03T11:01:24.626Z,19.39
2017-10-03T11:02:47.086Z,19.22
2017-10-03T11:04:09.253Z,19.14
2017-10-03T11:05:31.407Z,18.87
2017-10-03T11:06:53.889Z,18.72
2017-10-03T11:08:16.034Z,18.72
2017-10-03T11:09:37.895Z,18.67
2017-10-03T11:11:00.482Z,18.76
2017-10-03T11:12:22.438Z,18.8
2017-10-03T11:13:44.681Z,18.66
2017-10-03T11:15:06.843Z,18.37
2017-10-03T11:16:29.243Z,17.92
2017-10-03T11:17:51.440Z,17.22
2017-10-03T11:19:13.276Z,16.78
2017-10-03T11:20:35.098Z,16.38
2017-10-03T11:21:57.731Z,16.17
2017-10-03T11:23:20.323Z,16.07
2017-10-03T11:24:42.454Z,16.09
2017-10-03T11:26:04.291Z,16.09
2017-10-03T11:27:26.463Z,16.27
2017-10-03T11:28:47.964Z,16.25
2017-10-03T11:30:10.435Z,16.45
2017-10-03T11:31:32.659Z,16.42
2017-10-03T11:32:55.173Z,16.46
2017-10-03T11:34:17.111Z,16.48
2017-10-03T11:35:39.584Z,16.53
2017-10-03T11:37:01.414Z,16.64
2017-10-03T11:38:24.019Z,16.64
2017-10-03T11:39:45.872Z,16.7
2017-10-03T11:41:08.026Z,16.75
2017-10-03T11:42:30.201Z,16.85
2017-10-03T11:43:52.378Z,16.83
2017-10-03T11:45:14.955Z,16.85
2017-10-03T11:46:36.787Z,16.86
2017-10-03T11:47:59.376Z,16.83
2017-10-03T11:49:21.545Z,16.86
2017-10-03T11:50:43.732Z,16.98
2017-10-03T11:52:06.248Z,16.97
2017-10-03T11:53:28.105Z,17.18
2017-10-03T11:54:50.702Z,17.08
2017-10-03T11:56:12.530Z,17.07
2017-10-03T11:57:34.355Z,17.15
2017-10-03T11:58:57.037Z,17.25
2017-10-03T12:00:19.866Z,17.33
2017-10-03T12:01:41.798Z,17.46
2017-10-03T12:03:03.652Z,17.56
2017-10-03T12:04:25.471Z,17.49
2017-10-03T12:05:47.653Z,17.31
2017-10-03T12:07:08.899Z,17.03
2017-10-03T12:08:31.354Z,16.91
2017-10-03T12:09:53.885Z,16.88
2017-10-03T12:11:16.729Z,16.76
2017-10-03T12:12:39.304Z,16.52
2017-10-03T12:14:01.781Z,16.56
2017-10-03T12:15:23.943Z,16.56
2017-10-03T12:16:46.094Z,16.61
2017-10-03T12:18:08.554Z,16.63
2017-10-03T12:19:30.401Z,16.52
2017-10-03T12:20:52.563Z,16.33
2017-10-03T12:22:15.119Z,16.27
2017-10-03T12:23:37.844Z,16.25
2017-10-03T12:24:59.361Z,16.24
2017-10-03T12:26:21.534Z,16.2
2017-10-03T12:27:44.109Z,16.21
2017-10-03T12:29:06.275Z,16.09
2017-10-03T12:30:28.845Z,16.09
2017-10-03T12:31:50.694Z,16.05
2017-10-03T12:33:13.189Z,15.94
2017-10-03T12:34:35.363Z,15.83
2017-10-03T12:35:57.514Z,15.83
2017-10-03T12:37:20.055Z,15.93
2017-10-03T12:38:42.568Z,16.02
2017-10-03T12:40:05.060Z,16.12
2017-10-03T12:41:26.939Z,16.41
2017-10-03T12:42:49.242Z,16.45
2017-10-03T12:44:11.542Z,16.52
2017-10-03T12:45:33.686Z,16.7
2017-10-03T12:46:55.908Z,16.83
2017-10-03T12:48:18.388Z,16.81
2017-10-03T12:49:40.893Z,16.83
2017-10-03T12:51:03.355Z,16.83
2017-10-03T12:52:25.813Z,16.97
2017-10-03T12:53:48.387Z,16.96
2017-10-03T12:55:10.247Z,16.89
2017-10-03T12:56:32.709Z,16.82
2017-10-03T12:57:54.562Z,16.85
2017-10-03T12:59:17.065Z,16.82
2017-10-03T13:00:39.208Z,16.91
2017-10-03T13:02:01.373Z,16.83
2017-10-03T13:03:23.523Z,16.89
2017-10-03T13:04:45.998Z,16.91
2017-10-03T13:06:08.132Z,16.78
2017-10-03T13:07:30.365Z,16.85
2017-10-03T13:08:52.826Z,16.91
2017-10-03T13:10:14.977Z,16.83
2017-10-03T13:11:37.464Z,17
2017-10-03T13:12:59.954Z,16.98
2017-10-03T13:14:22.206Z,17.12
2017-10-03T13:15:44.674Z,17.19
2017-10-03T13:17:07.495Z,17.19
2017-10-03T13:18:29.637Z,17.26
2017-10-03T13:19:51.823Z,17.25
2017-10-03T13:21:13.635Z,17.18
2017-10-03T13:22:36.474Z,17.08
2017-10-03T13:23:58.652Z,17.18
2017-10-03T13:25:21.123Z,17.43
2017-10-03T13:26:43.625Z,17.71
2017-10-03T13:28:06.109Z,17.92
2017-10-03T13:29:28.263Z,18.14
2017-10-03T13:30:50.153Z,18.3
2017-10-03T13:32:12.330Z,18.62
2017-10-03T13:33:34.615Z,18.54
2017-10-03T13:34:56.834Z,18.51
2017-10-03T13:36:19.024Z,18.5
2017-10-03T13:37:40.874Z,18.3
2017-10-03T13:39:02.752Z,18.25
2017-10-03T13:40:25.042Z,17.96
2017-10-03T13:41:47.526Z,17.74
2017-10-03T13:43:10.008Z,17.55
2017-10-03T13:44:31.934Z,17.46
2017-10-03T13:45:53.766Z,17.34
2017-10-03T13:47:16.273Z,17.21
2017-10-03T13:48:38.773Z,17.12
2017-10-03T13:50:01.318Z,17.12
2017-10-03T13:51:23.445Z,16.86
2017-10-03T13:52:45.442Z,16.68
2017-10-03T13:54:07.428Z,16.42
2017-10-03T13:55:29.290Z,16.28
2017-10-03T13:56:51.213Z,16.15
2017-10-03T13:58:13.384Z,16.27
2017-10-03T13:59:35.633Z,16.21
2017-10-03T14:00:58.325Z,16.3
2017-10-03T14:02:20.848Z,16.28
2017-10-03T14:03:43.463Z,16.27
2017-10-03T14:05:05.637Z,16.21
2017-10-03T14:06:28.126Z,16.14
2017-10-03T14:07:50.605Z,16.12
2017-10-03T14:09:13.064Z,16.09
2017-10-03T14:10:34.921Z,16.09
2017-10-03T14:11:57.275Z,16.11
2017-10-03T14:13:19.445Z,15.94
2017-10-03T14:14:41.617Z,15.84
2017-10-03T14:16:04.123Z,15.78
2017-10-03T14:17:25.965Z,15.82
2017-10-03T14:18:48.296Z,15.83
2017-10-03T14:20:10.149Z,15.82
2017-10-03T14:21:31.985Z,15.86
2017-10-03T14:22:53.841Z,15.94
2017-10-03T14:24:16.084Z,16.02
2017-10-03T14:25:38.733Z,16.09
2017-10-03T14:27:01.210Z,16.05
2017-10-03T14:28:23.746Z,15.93
2017-10-03T14:29:45.934Z,15.86
2017-10-03T14:31:08.405Z,15.71
2017-10-03T14:32:30.858Z,15.69
2017-10-03T14:33:53.420Z,15.39
2017-10-03T14:35:15.606Z,15.19
2017-10-03T14:36:38.155Z,15.06
2017-10-03T14:38:00.653Z,15.06
2017-10-03T14:39:23.461Z,14.98
2017-10-03T14:40:45.933Z,14.94
2017-10-03T14:42:07.517Z,14.95
2017-10-03T14:43:30.024Z,14.95
2017-10-03T14:44:52.896Z,15.11
2017-10-03T14:46:14.753Z,15.32
2017-10-03T14:47:37.244Z,15.46
2017-10-03T14:48:59.747Z,15.59
2017-10-03T14:50:21.927Z,15.59
2017-10-03T14:51:44.424Z,15.53
2017-10-03T14:53:06.992Z,15.27
2017-10-03T14:54:29.490Z,15.21
2017-10-03T14:55:52.000Z,15.17
2017-10-03T14:57:14.561Z,15.09
2017-10-03T14:58:37.049Z,15.07
2017-10-03T14:59:58.870Z,15.03
2017-10-03T15:01:20.724Z,15.09
2017-10-03T15:02:43.253Z,15.11
2017-10-03T15:04:05.104Z,15.14
2017-10-03T15:05:27.261Z,15.21
2017-10-03T15:06:49.794Z,15.39
2017-10-03T15:08:11.345Z,15.43
2017-10-03T15:09:33.866Z,15.6
2017-10-03T15:10:56.423Z,15.69
2017-10-03T15:12:18.300Z,15.68
2017-10-03T15:13:40.474Z,15.68
2017-10-03T15:15:02.309Z,15.69
2017-10-03T15:16:24.160Z,15.64
2017-10-03T15:17:46.695Z,15.68
2017-10-03T15:19:09.195Z,15.64
2017-10-03T15:20:31.045Z,15.54
2017-10-03T15:21:53.647Z,15.54
2017-10-03T15:23:15.845Z,15.35
2017-10-03T15:24:38.383Z,15.29
2017-10-03T15:26:00.882Z,15.21
2017-10-03T15:27:23.504Z,15.1
2017-10-03T15:28:46.348Z,15.09
2017-10-03T15:30:08.552Z,15.06
2017-10-03T15:31:30.715Z,14.98
2017-10-03T15:32:52.857Z,14.91
2017-10-03T15:34:15.011Z,14.75
2017-10-03T15:35:37.662Z,14.62
2017-10-03T15:36:59.887Z,14.69
2017-10-03T15:38:22.419Z,14.47
2017-10-03T15:39:44.586Z,14.45
2017-10-03T15:41:07.115Z,14.39
2017-10-03T15:42:29.688Z,14.32
2017-10-03T15:43:51.846Z,14.28
2017-10-03T15:45:13.685Z,14.25
2017-10-03T15:46:36.153Z,14.21
2017-10-03T15:47:57.783Z,14.24
2017-10-03T15:49:19.771Z,14.24
2017-10-03T15:50:42.193Z,14.32
2017-10-03T15:52:03.820Z,14.35
2017-10-03T15:53:25.124Z,14.37
2017-10-03T15:54:47.092Z,14.35
2017-10-03T15:56:08.743Z,14.47
2017-10-03T15:57:30.703Z,14.43
2017-10-03T15:58:52.086Z,14.51
2017-10-03T16:00:13.733Z,14.61
2017-10-03T16:01:35.390Z,14.58
2017-10-03T16:02:56.706Z,14.7
2017-10-03T16:04:18.013Z,14.81
2017-10-03T16:05:39.672Z,14.81
2017-10-03T16:07:00.993Z,14.86
2017-10-03T16:08:22.643Z,14.8
2017-10-03T16:09:44.641Z,14.72
2017-10-03T16:11:06.636Z,14.72
2017-10-03T16:12:28.654Z,14.72
2017-10-03T16:13:50.631Z,14.69
2017-10-03T16:15:12.635Z,14.61
2017-10-03T16:16:34.416Z,14.55
2017-10-03T16:17:56.174Z,14.64
2017-10-03T16:19:18.134Z,14.54
2017-10-03T16:20:40.114Z,14.47
2017-10-03T16:22:02.083Z,14.46
2017-10-03T16:23:24.316Z,14.4
2017-10-03T16:24:45.631Z,14.37
2017-10-03T16:26:07.289Z,14.33
2017-10-03T16:27:29.288Z,14.37
2017-10-03T16:28:50.935Z,14.28
2017-10-03T16:30:12.622Z,14.29
2017-10-03T16:31:34.573Z,14.29
2017-10-03T16:32:56.556Z,14.25
2017-10-03T16:34:17.546Z,14.28
2017-10-03T16:35:39.544Z,14.14
2017-10-03T16:37:01.613Z,14.06
2017-10-03T16:38:23.651Z,13.88
2017-10-03T16:39:45.633Z,13.78
2017-10-03T16:41:07.279Z,13.6
2017-10-03T16:42:28.948Z,13.57
2017-10-03T16:43:50.940Z,13.52
2017-10-03T16:45:13.400Z,13.48
2017-10-03T16:46:35.042Z,13.52
2017-10-03T16:47:56.354Z,13.36
2017-10-03T16:49:17.983Z,13.42
2017-10-03T16:50:39.981Z,13.41
2017-10-03T16:52:01.932Z,13.48
2017-10-03T16:53:23.369Z,13.52
2017-10-03T16:54:44.693Z,13.49
2017-10-03T16:56:06.686Z,13.46
2017-10-03T16:57:28.014Z,13.36
2017-10-03T16:58:49.694Z,13.36
2017-10-03T17:00:11.015Z,13.32
2017-10-03T17:01:32.683Z,13.29
2017-10-03T17:02:54.643Z,13.25
2017-10-03T17:04:16.711Z,13.3
2017-10-03T17:05:38.668Z,13.36
2017-10-03T17:07:00.683Z,13.33
2017-10-03T17:08:22.314Z,13.41
2017-10-03T17:09:43.976Z,13.45
2017-10-03T17:11:05.956Z,13.49
2017-10-03T17:12:27.915Z,13.54
2017-10-03T17:13:49.294Z,13.51
2017-10-03T17:15:10.945Z,13.59
2017-10-03T17:17:04.412Z,13.57
2017-10-03T17:18:26.081Z,13.66
2017-10-03T17:19:48.106Z,13.69
2017-10-03T17:21:09.852Z,13.7
2017-10-03T17:22:31.838Z,13.71
2017-10-03T17:23:53.471Z,13.6
2017-10-03T17:25:15.115Z,13.6
2017-10-03T17:26:36.774Z,13.6
2017-10-03T17:27:58.828Z,13.6
2017-10-03T17:29:19.542Z,13.49
2017-10-03T17:30:41.217Z,13.42
2017-10-03T17:32:02.885Z,13.46
2017-10-03T17:33:23.884Z,13.33
2017-10-03T17:34:45.937Z,13.3
2017-10-03T17:36:06.997Z,13.2
2017-10-03T17:37:28.963Z,13.04
2017-10-03T17:38:50.616Z,13.01